Milford, Delaware
Current Conditions -  °F | °C
As of 7:03 PM on Wednesday 22 Oct 2014 (Local Time) from KDOV Reporting Station
Light Rain Light Rain  
Wind Chill: 54°   Ceiling: 900
Heat Index: 54°   Visibility: 8mi
Dew Point: 54°   Wind: 14mph
Humidity: 100%   Direction: 320°NW
Pressure: 29.81"   Gusts: 23mph
Location:  38.93°N, 75.43°W
Report Text: KDOV 222303Z AUTO 32012G20KT 8SM R01/5500FT -RA BKN009 OVC016 12/12 A2981 RMK AO2
Loading
Personal Weather Stations






























Interactive Weather Map
Tropical Storm Tracking
New forecast layout! Learn more

10-Day Weather Forecast

Advertisements
Track Severe Weather on mobile